Time;durP1;ratioP1;P1;durP2;ratioP2;P2;SDS_P1;SDS_P2;PMS_P1;PMS_P2;Temp;Humidity;BMP_temperature;BMP_pressure;BME280_temperature;BME280_humidity;BME280_pressure;Samples;Min_cycle;Max_cycle;Signal;HPM_P1;HPM_P2
2023/01/19 00:00:04;;;;;;;38.50;13.60;;;;;;;11.55;100.00;99356.17;107946;1254;75336;-63
2023/01/19 00:02:31;;;;;;;35.20;14.10;;;;;;;11.54;100.00;99361.88;108037;1254;62312;-64
2023/01/19 00:04:59;;;;;;;37.70;13.30;;;;;;;11.57;100.00;99348.86;107964;1254;62381;-62
2023/01/19 00:07:26;;;;;;;44.10;13.30;;;;;;;11.31;100.00;99340.73;107974;1254;72811;-63
2023/01/19 00:09:53;;;;;;;42.20;14.30;;;;;;;11.78;100.00;99341.09;107812;1254;72240;-62
2023/01/19 00:12:20;;;;;;;34.00;11.70;;;;;;;11.39;100.00;99343.64;107927;1254;71296;-62
2023/01/19 00:14:46;;;;;;;37.50;13.30;;;;;;;11.64;100.00;99345.53;108002;1254;63546;-62
2023/01/19 00:17:13;;;;;;;38.00;12.20;;;;;;;11.24;100.00;99343.25;107833;1254;60867;-64
2023/01/19 00:19:40;;;;;;;36.70;12.00;;;;;;;10.54;100.00;99346.61;107918;1254;74503;-64
2023/01/19 00:22:07;;;;;;;39.40;13.00;;;;;;;10.61;100.00;99356.44;107929;1254;70335;-64
2023/01/19 00:24:34;;;;;;;35.30;12.20;;;;;;;10.30;100.00;99367.90;108059;1254;75115;-65
2023/01/19 00:27:02;;;;;;;45.90;13.50;;;;;;;10.30;100.00;99377.44;108007;1254;63780;-62
2023/01/19 00:29:32;;;;;;;41.00;13.00;;;;;;;10.44;100.00;99380.06;107944;1254;60335;-62
2023/01/19 00:31:59;;;;;;;41.90;11.80;;;;;;;10.48;100.00;99380.24;107966;1254;72785;-64
2023/01/19 00:34:26;;;;;;;36.70;12.10;;;;;;;10.64;100.00;99374.02;108043;1254;70390;-62
2023/01/19 00:36:53;;;;;;;27.00;10.40;;;;;;;10.82;100.00;99362.06;107932;1259;73117;-62
2023/01/19 00:39:20;;;;;;;27.70;10.50;;;;;;;10.72;100.00;99357.63;107983;1254;63387;-62
2023/01/19 00:44:32;;;;;;;35.60;12.20;;;;;;;10.79;100.00;99359.44;107972;1254;73458;-64
2023/01/19 00:46:59;;;;;;;35.30;11.90;;;;;;;11.04;100.00;99360.96;107951;1254;70710;-61
2023/01/19 00:49:26;;;;;;;35.40;12.70;;;;;;;11.42;100.00;99361.95;108003;1254;74635;-61
2023/01/19 00:51:53;;;;;;;28.60;11.30;;;;;;;10.69;100.00;99359.73;107992;1254;62923;-63
2023/01/19 00:54:20;;;;;;;40.40;12.70;;;;;;;10.83;100.00;99355.02;108012;1255;62746;-63
2023/01/19 00:56:47;;;;;;;23.40;10.50;;;;;;;10.65;100.00;99355.38;108043;1254;74749;-61
2023/01/19 00:59:14;;;;;;;26.60;9.20;;;;;;;10.77;100.00;99355.98;108059;1254;72283;-63
2023/01/19 01:01:41;;;;;;;35.60;12.20;;;;;;;10.77;100.00;99357.42;107927;1259;74467;-65
2023/01/19 01:04:13;;;;;;;25.20;9.70;;;;;;;10.46;100.00;99360.84;108047;1254;63125;-63
2023/01/19 01:06:39;;;;;;;31.00;11.30;;;;;;;10.36;100.00;99362.23;108044;1254;61161;-63
2023/01/19 01:09:10;;;;;;;27.10;10.00;;;;;;;10.22;100.00;99362.52;107949;1254;76076;-62
2023/01/19 01:11:38;;;;;;;;;;;;;;;11.27;100.00;99363.61;108034;1254;72279;-63
2023/01/19 01:14:05;;;;;;;34.40;12.00;;;;;;;10.69;100.00;99366.04;108007;1256;74882;-63
2023/01/19 01:16:32;;;;;;;26.50;10.40;;;;;;;10.16;100.00;99371.91;107978;1254;61609;-62
2023/01/19 01:18:59;;;;;;;33.40;11.40;;;;;;;9.88;100.00;99373.91;107993;1254;62682;-62
2023/01/19 01:21:26;;;;;;;28.00;10.50;;;;;;;9.96;100.00;99378.48;108080;1254;75530;-63
2023/01/19 01:23:53;;;;;;;35.60;15.80;;;;;;;10.41;100.00;99383.89;108056;1254;71066;-63
2023/01/19 01:26:20;;;;;;;29.20;13.90;;;;;;;9.68;100.00;99388.17;107961;1256;75128;-61
2023/01/19 01:28:47;;;;;;;23.20;12.30;;;;;;;9.46;100.00;99386.14;107935;1259;63849;-60
2023/01/19 01:31:13;;;;;;;33.20;15.00;;;;;;;9.61;100.00;99381.80;107958;1254;62301;-61
2023/01/19 01:33:40;;;;;;;49.60;20.70;;;;;;;10.16;100.00;99389.30;107992;1254;76438;-62
2023/01/19 01:36:09;;;;;;;34.30;14.10;;;;;;;10.25;100.00;99394.85;108166;1254;71895;-63
2023/01/19 01:38:37;;;;;;;43.70;14.30;;;;;;;10.02;100.00;99395.70;107815;1254;74991;-62
2023/01/19 01:41:03;;;;;;;39.00;14.70;;;;;;;10.22;100.00;99387.79;108064;1254;63214;-61
2023/01/19 01:43:44;;;;;;;35.80;12.90;;;;;;;10.32;100.00;99388.55;108185;1254;61309;-61
2023/01/19 01:46:14;;;;;;;35.60;14.00;;;;;;;10.58;100.00;99388.02;108018;1254;75978;-62
2023/01/19 01:49:03;;;;;;;43.60;15.30;;;;;;;10.67;100.00;99401.77;107994;1254;70411;-61
2023/01/19 01:51:42;;;;;;;34.50;13.40;;;;;;;10.63;100.00;99414.77;108010;1254;73888;-61
2023/01/19 01:54:15;;;;;;;36.70;14.30;;;;;;;11.10;100.00;99412.48;107901;1254;62064;-61
2023/01/19 01:56:47;;;;;;;27.10;11.60;;;;;;;11.15;100.00;99408.55;107897;1254;61446;-62
2023/01/19 01:59:37;;;;;;;29.50;11.70;;;;;;;11.39;100.00;99405.35;108075;1254;75339;-62
2023/01/19 02:04:54;;;;;;;33.30;13.70;;;;;;;11.17;100.00;99401.59;107872;1256;74796;-62
2023/01/19 02:13:20;;;;;;;29.70;12.40;;;;;;;11.75;100.00;99389.25;107864;1255;76189;-62
2023/01/19 02:15:48;;;;;;;20.70;9.10;;;;;;;11.52;100.00;99392.75;107986;1256;71499;-62
2023/01/19 02:18:15;;;;;;;22.50;10.50;;;;;;;11.42;100.00;99403.46;107926;1255;73789;-60
2023/01/19 02:20:46;;;;;;;24.80;10.00;;;;;;;11.23;100.00;99415.84;107779;1256;62059;-61
2023/01/19 02:23:18;;;;;;;28.70;11.50;;;;;;;11.13;100.00;99418.82;107843;1256;60327;-63
2023/01/19 02:25:45;;;;;;;25.90;12.10;;;;;;;11.03;100.00;99418.97;107966;1256;75768;-61
2023/01/19 02:28:12;;;;;;;19.80;8.40;;;;;;;10.96;100.00;99411.43;107962;1255;70996;-61
2023/01/19 02:30:38;;;;;;;33.20;13.00;;;;;;;11.12;100.00;99418.85;107864;1256;74665;-62
2023/01/19 02:33:06;;;;;;;27.50;12.40;;;;;;;10.85;100.00;99412.66;107825;1256;63225;-61
2023/01/19 02:35:33;;;;;;;18.50;8.60;;;;;;;10.86;100.00;99415.61;107946;1256;62631;-62
2023/01/19 02:38:00;;;;;;;22.80;12.00;;;;;;;10.92;100.00;99424.30;107841;1256;75210;-60
2023/01/19 02:40:27;;;;;;;17.00;8.10;;;;;;;10.78;100.00;99417.57;107905;1255;72499;-63
2023/01/19 02:42:55;;;;;;;22.80;11.00;;;;;;;10.80;100.00;99417.64;107839;1256;74662;-65
2023/01/19 02:45:22;;;;;;;24.00;11.60;;;;;;;10.74;100.00;99420.95;107938;1255;61320;-66
2023/01/19 02:47:50;;;;;;;20.50;9.00;;;;;;;10.79;100.00;99422.09;107962;1254;61243;-61
2023/01/19 02:50:44;;;;;;;25.90;11.90;;;;;;;10.49;100.00;99415.64;108029;1254;74417;-61
2023/01/19 02:53:30;;;;;;;17.50;10.50;;;;;;;10.45;100.00;99410.75;108059;1255;69906;-63
2023/01/19 02:56:19;;;;;;;16.30;9.30;;;;;;;10.51;100.00;99406.61;107969;1256;71686;-61
2023/01/19 02:59:10;;;;;;;23.50;13.10;;;;;;;10.78;100.00;99396.36;107996;1254;62364;-62
2023/01/19 03:01:46;;;;;;;18.40;10.60;;;;;;;10.70;100.00;99383.91;107926;1256;60440;-61
2023/01/19 03:04:22;;;;;;;25.30;10.60;;;;;;;10.77;100.00;99377.41;107890;1255;74748;-62
2023/01/19 03:06:52;;;;;;;25.50;10.60;;;;;;;10.71;100.00;99382.14;107913;1256;70944;-59
2023/01/19 03:09:40;;;;;;;24.60;11.00;;;;;;;10.28;100.00;99403.29;107910;1256;73679;-61
2023/01/19 03:12:16;;;;;;;24.70;11.80;;;;;;;9.80;100.00;99413.19;107882;1256;63309;-62
2023/01/19 03:14:45;;;;;;;39.00;15.30;;;;;;;10.05;100.00;99409.06;107908;1256;60322;-61
2023/01/19 03:17:11;;;;;;;37.80;14.40;;;;;;;9.73;100.00;99417.38;107778;1256;75941;-61
2023/01/19 03:19:40;;;;;;;27.20;10.70;;;;;;;9.85;100.00;99410.70;107788;1256;70990;-60
2023/01/19 03:22:14;;;;;;;26.20;12.90;;;;;;;10.03;100.00;99402.71;107903;1256;74448;-61
2023/01/19 03:24:42;;;;;;;24.80;10.80;;;;;;;10.00;100.00;99408.80;107901;1256;61386;-61
2023/01/19 03:27:31;;;;;;;26.90;12.00;;;;;;;10.04;100.00;99407.91;107967;1255;60523;-61
2023/01/19 03:30:09;;;;;;;25.00;11.90;;;;;;;9.97;100.00;99412.08;107975;1255;72217;-61
2023/01/19 03:32:40;;;;;;;20.30;8.80;;;;;;;9.79;100.00;99420.80;107913;1255;72173;-63
2023/01/19 03:35:10;;;;;;;23.80;13.00;;;;;;;9.72;100.00;99426.71;107911;1255;75189;-62
2023/01/19 03:37:40;;;;;;;31.20;13.30;;;;;;;9.59;100.00;99427.11;107958;1256;63322;-63
2023/01/19 03:40:08;;;;;;;17.30;9.00;;;;;;;9.59;100.00;99422.38;107986;1256;62407;-63
2023/01/19 03:42:35;;;;;;;24.50;10.80;;;;;;;9.57;100.00;99428.44;107969;1256;76165;-61
2023/01/19 03:45:02;;;;;;;23.90;13.10;;;;;;;9.66;100.00;99437.18;107965;1256;70555;-62
2023/01/19 03:47:29;;;;;;;16.10;8.90;;;;;;;9.54;100.00;99438.38;107985;1256;74129;-63
2023/01/19 03:49:56;;;;;;;25.80;11.60;;;;;;;9.64;100.00;99444.79;107991;1254;63248;-61
2023/01/19 03:52:32;;;;;;;20.40;10.00;;;;;;;9.85;100.00;99441.55;107963;1254;60737;-59
2023/01/19 03:55:00;;;;;;;16.10;8.60;;;;;;;9.87;100.00;99448.14;108031;1254;75817;-61
2023/01/19 03:57:26;;;;;;;18.70;10.20;;;;;;;9.61;100.00;99451.58;107965;1254;71453;-60
2023/01/19 03:59:54;;;;;;;13.70;7.50;;;;;;;9.60;100.00;99453.52;107942;1254;74796;-59
2023/01/19 04:02:22;;;;;;;13.40;8.80;;;;;;;9.48;100.00;99456.86;107892;1256;63256;-62
2023/01/19 04:04:49;;;;;;;21.20;11.90;;;;;;;9.71;100.00;99454.46;107980;1254;60199;-62
2023/01/19 04:07:16;;;;;;;20.70;8.70;;;;;;;9.79;100.00;99451.64;107988;1254;73087;-60
2023/01/19 04:09:43;;;;;;;23.10;11.50;;;;;;;9.73;100.00;99441.57;107886;1254;70646;-60
2023/01/19 04:12:10;;;;;;;14.70;10.20;;;;;;;9.71;100.00;99444.12;107938;1254;72760;-62
2023/01/19 07:43:56;;;;;;;63.50;25.30;;;;;;;4.77;100.00;99398.73;105454;1292;602243;-90
2023/01/19 07:46:29;;;;;;;47.10;23.00;;;;;;;6.55;100.00;99389.03;108161;1267;57971;-89
2023/01/19 07:49:21;;;;;;;44.70;21.00;;;;;;;7.02;100.00;99404.05;107992;1267;60314;-88
2023/01/19 07:51:48;;;;;;;48.40;19.10;;;;;;;7.37;100.00;99400.25;107602;1269;72019;-90
2023/01/19 07:54:15;;;;;;;43.90;17.70;;;;;;;7.46;100.00;99391.85;107459;1267;68565;-90
2023/01/19 07:56:42;;;;;;;27.80;15.40;;;;;;;7.67;100.00;99391.61;107690;1257;147479;-90
2023/01/19 07:59:09;;;;;;;53.80;16.60;;;;;;;7.89;100.00;99389.95;108204;1257;60279;-88
2023/01/19 08:01:36;;;;;;;24.90;16.30;;;;;;;7.93;100.00;99396.05;108213;1257;59169;-90
2023/01/19 08:04:04;;;;;;;29.10;16.60;;;;;;;7.95;100.00;99392.36;108190;1257;71337;-90
2023/01/19 08:06:36;;;;;;;49.80;16.90;;;;;;;8.15;100.00;99389.83;108037;1257;71670;-90
2023/01/19 08:09:06;;;;;;;24.10;14.20;;;;;;;8.39;100.00;99382.61;108017;1262;72570;-89
2023/01/19 08:11:35;;;;;;;41.10;14.20;;;;;;;8.66;100.00;99373.85;108159;1257;61510;-89
2023/01/19 08:14:07;;;;;;;28.20;13.70;;;;;;;8.45;100.00;99377.98;108435;1251;61280;-90
2023/01/19 08:16:35;;;;;;;30.80;15.70;;;;;;;8.57;100.00;99384.50;108524;1251;72973;-90
2023/01/19 08:19:03;;;;;;;52.80;14.50;;;;;;;8.60;100.00;99386.48;108613;1251;70253;-91
2023/01/19 08:21:32;;;;;;;32.90;15.50;;;;;;;8.51;100.00;99397.88;109088;1251;73217;-91
2023/01/19 08:23:59;;;;;;;28.80;13.10;;;;;;;8.73;100.00;99394.34;108380;1251;60745;-90
2023/01/19 08:26:32;;;;;;;18.40;11.80;;;;;;;8.75;100.00;99405.49;108413;1251;61051;-90
2023/01/19 08:29:01;;;;;;;24.90;10.90;;;;;;;8.71;100.00;99419.64;108439;1251;71542;-90
2023/01/19 08:31:28;;;;;;;19.50;11.30;;;;;;;8.81;100.00;99419.92;108313;1250;70348;-90
2023/01/19 08:33:55;;;;;;;27.00;10.50;;;;;;;8.53;100.00;99415.61;108272;1254;72688;-90
2023/01/19 08:36:23;;;;;;;35.50;15.60;;;;;;;8.37;100.00;99422.02;108375;1254;61276;-89
2023/01/19 08:38:52;;;;;;;37.20;11.70;;;;;;;8.72;100.00;99433.26;108388;1251;60069;-90
2023/01/19 08:41:19;;;;;;;42.70;12.30;;;;;;;8.83;100.00;99415.14;108386;1251;73928;-91
2023/01/19 08:43:46;;;;;;;25.90;12.50;;;;;;;8.51;100.00;99406.63;108360;1251;69700;-91
2023/01/19 08:46:16;;;;;;;28.20;14.70;;;;;;;8.42;100.00;99416.42;108345;1251;71607;-90
2023/01/19 08:48:44;;;;;;;57.60;20.90;;;;;;;8.55;100.00;99401.72;108403;1251;61118;-91
2023/01/19 08:51:11;;;;;;;58.90;23.30;;;;;;;8.44;100.00;99402.34;108418;1254;60041;-89
2023/01/19 08:53:41;;;;;;;52.10;25.10;;;;;;;8.67;100.00;99404.58;108530;1251;72657;-91
2023/01/19 08:56:11;;;;;;;68.70;29.60;;;;;;;8.65;100.00;99406.23;108531;1251;71252;-91
2023/01/19 08:58:39;;;;;;;77.60;34.40;;;;;;;8.97;100.00;99411.23;108332;1251;74167;-91
2023/01/19 09:01:07;;;;;;;73.50;35.10;;;;;;;8.76;100.00;99415.08;108314;1251;61081;-90
2023/01/19 09:03:35;;;;;;;69.50;32.30;;;;;;;8.47;100.00;99403.78;108340;1251;61117;-89
2023/01/19 09:06:06;;;;;;;78.00;33.00;;;;;;;8.52;100.00;99391.38;108329;1251;73068;-91
2023/01/19 09:08:33;;;;;;;62.30;30.20;;;;;;;8.40;100.00;99389.89;108442;1251;70084;-89
2023/01/19 09:11:00;;;;;;;85.50;35.40;;;;;;;9.00;100.00;99395.84;108405;1251;73632;-91
2023/01/19 09:13:28;;;;;;;77.50;30.90;;;;;;;9.49;100.00;99395.67;108425;1251;62213;-90
2023/01/19 09:15:55;;;;;;;82.90;32.20;;;;;;;9.52;100.00;99391.54;108008;1254;60411;-90
2023/01/19 09:18:26;;;;;;;80.40;31.20;;;;;;;9.43;100.00;99392.42;108519;1254;72890;-92
2023/01/19 09:20:56;;;;;;;71.80;28.30;;;;;;;9.52;100.00;99379.93;108303;1250;71618;-89
2023/01/19 09:23:25;;;;;;;59.20;26.60;;;;;;;9.86;100.00;99386.83;108375;1251;71675;-89
2023/01/19 09:26:02;;;;;;;71.40;26.20;;;;;;;9.86;100.00;99389.98;108447;1251;61191;-90
2023/01/19 09:28:29;;;;;;;56.10;25.10;;;;;;;9.69;100.00;99398.95;108336;1253;61164;-91
2023/01/19 09:30:56;;;;;;;56.90;24.70;;;;;;;9.74;100.00;99393.50;108357;1251;72124;-89
2023/01/19 09:33:27;;;;;;;59.60;25.50;;;;;;;9.80;100.00;99391.62;108264;1251;71271;-89
2023/01/19 09:35:55;;;;;;;47.00;20.80;;;;;;;9.75;100.00;99383.64;108404;1251;71806;-90
2023/01/19 09:38:24;;;;;;;55.40;22.40;;;;;;;9.52;100.00;99369.43;108427;1251;60275;-90
2023/01/19 09:40:53;;;;;;;52.00;23.90;;;;;;;9.50;100.00;99373.56;108369;1250;60244;-88
2023/01/19 09:43:41;;;;;;;61.50;22.00;;;;;;;9.23;100.00;99376.48;108415;1251;72988;-90
2023/01/19 09:46:19;;;;;;;51.10;21.40;;;;;;;9.73;100.00;99364.79;108384;1251;71321;-90
2023/01/19 09:48:57;;;;;;;49.10;21.90;;;;;;;9.63;100.00;99360.89;108421;1251;72323;-90
2023/01/19 09:51:30;;;;;;;47.00;21.20;;;;;;;10.01;100.00;99356.14;108426;1251;61273;-90
2023/01/19 09:54:14;;;;;;;54.10;22.60;;;;;;;10.16;100.00;99350.87;108338;1251;60190;-89
2023/01/19 09:56:43;;;;;;;40.40;21.00;;;;;;;10.03;100.00;99342.52;108691;1251;73101;-88
2023/01/19 09:59:17;;;;;;;38.60;20.70;;;;;;;10.05;100.00;99342.96;108671;1251;72409;-88
2023/01/19 10:01:51;;;;;;;48.40;22.30;;;;;;;10.16;100.00;99333.14;108794;1254;72396;-88
2023/01/19 10:04:38;;;;;;;48.90;22.70;;;;;;;10.14;100.00;99325.16;108723;1251;61143;-88
2023/01/19 10:07:51;;;;;;;51.10;24.00;;;;;;;10.12;100.00;99324.73;108491;1253;61345;-89
2023/01/19 10:10:53;;;;;;;46.50;23.00;;;;;;;9.80;100.00;99322.92;108362;1251;74239;-89
2023/01/19 10:13:27;;;;;;;44.60;20.80;;;;;;;9.33;100.00;99327.33;108562;1251;69474;-90
2023/01/19 10:16:18;;;;;;;39.40;20.10;;;;;;;9.23;100.00;99317.45;108453;1251;71700;-91
2023/01/19 10:18:46;;;;;;;45.20;23.00;;;;;;;9.55;100.00;99318.45;108333;1254;60998;-90
2023/01/19 10:21:18;;;;;;;42.20;20.60;;;;;;;9.61;100.00;99308.90;108485;1251;60502;-91
2023/01/19 10:23:56;;;;;;;56.20;24.00;;;;;;;9.43;100.00;99300.79;108484;1251;71809;-90
2023/01/19 10:26:26;;;;;;;45.50;22.50;;;;;;;9.78;100.00;99290.95;108534;1251;71628;-90
2023/01/19 10:28:57;;;;;;;39.20;19.80;;;;;;;9.96;100.00;99291.11;108768;1251;72465;-90
2023/01/19 10:31:24;;;;;;;43.80;20.40;;;;;;;9.67;100.00;99285.70;108722;1251;61018;-89
2023/01/19 10:33:52;;;;;;;48.70;23.30;;;;;;;9.74;100.00;99282.17;108972;1251;60255;-89
2023/01/19 10:36:30;;;;;;;38.50;20.20;;;;;;;9.89;100.00;99276.74;108727;1251;72121;-90
2023/01/19 10:38:58;;;;;;;46.50;23.80;;;;;;;9.79;100.00;99275.29;108970;1251;70074;-90
2023/01/19 10:41:40;;;;;;;51.70;22.50;;;;;;;9.77;100.00;99272.58;109077;1251;72508;-89
2023/01/19 10:44:38;;;;;;;53.60;23.40;;;;;;;10.11;100.00;99272.02;109422;1251;61121;-89
2023/01/19 10:47:05;;;;;;;39.20;19.00;;;;;;;10.49;100.00;99271.06;109368;1251;59013;-89
2023/01/19 10:49:41;;;;;;;41.20;20.50;;;;;;;10.65;100.00;99272.13;109108;1251;72009;-90
2023/01/19 10:52:30;;;;;;;43.30;20.60;;;;;;;10.51;100.00;99266.18;108988;1251;70157;-91
2023/01/19 10:54:58;;;;;;;47.60;21.30;;;;;;;10.67;100.00;99256.96;108910;1251;73946;-88
2023/01/19 10:57:37;;;;;;;45.70;22.30;;;;;;;10.67;100.00;99249.59;108952;1252;61201;-91
2023/01/19 11:00:32;;;;;;;42.50;21.00;;;;;;;10.65;100.00;99246.88;109435;1251;60244;-89
2023/01/19 11:03:31;;;;;;;43.30;21.10;;;;;;;10.64;100.00;99243.92;108642;1251;71877;-90
2023/01/19 11:06:21;;;;;;;46.80;20.80;;;;;;;10.81;100.00;99244.85;108800;1251;71140;-92
2023/01/19 11:09:20;;;;;;;45.10;21.00;;;;;;;10.65;100.00;99245.63;108592;1251;72521;-91
2023/01/19 11:12:19;;;;;;;39.00;21.00;;;;;;;10.61;100.00;99239.17;108414;1256;60924;-92
2023/01/19 11:14:53;;;;;;;48.50;21.70;;;;;;;10.74;100.00;99238.00;109011;1254;61077;-90
2023/01/19 11:17:25;;;;;;;41.40;22.80;;;;;;;10.77;100.00;99236.79;108740;1254;71682;-91
2023/01/19 11:19:58;;;;;;;35.30;18.80;;;;;;;10.77;100.00;99233.11;108266;1251;71981;-91
2023/01/19 11:22:34;;;;;;;43.10;21.90;;;;;;;10.63;100.00;99234.88;108449;1251;73332;-91
2023/01/19 11:25:04;;;;;;;42.00;22.30;;;;;;;11.12;100.00;99226.70;108184;1251;61874;-91
2023/01/19 11:27:33;;;;;;;35.50;19.20;;;;;;;10.93;100.00;99222.78;108297;1251;61756;-89
2023/01/19 11:30:17;;;;;;;42.10;20.60;;;;;;;11.11;100.00;99215.88;108272;1251;73037;-91
2023/01/19 11:32:48;;;;;;;46.80;22.40;;;;;;;11.29;100.00;99214.55;108208;1251;71249;-90
2023/01/19 11:35:38;;;;;;;36.80;19.80;;;;;;;11.37;100.00;99208.44;108292;1251;74004;-91
2023/01/19 11:38:06;;;;;;;38.70;20.60;;;;;;;11.42;100.00;99211.53;108313;1251;59479;-90
2023/01/19 11:40:33;;;;;;;36.50;18.40;;;;;;;11.58;100.00;99205.39;108443;1251;61343;-91
2023/01/19 11:43:00;;;;;;;38.80;20.10;;;;;;;11.61;100.00;99205.56;108305;1251;73784;-91
2023/01/19 11:45:27;;;;;;;37.80;19.30;;;;;;;11.47;100.00;99193.33;108194;1251;70199;-90
2023/01/19 11:47:55;;;;;;;38.50;19.20;;;;;;;11.36;100.00;99192.18;108409;1251;70648;-90
2023/01/19 11:50:30;;;;;;;51.20;23.10;;;;;;;11.51;100.00;99197.30;108391;1251;61127;-89
2023/01/19 11:53:10;;;;;;;43.70;20.10;;;;;;;11.51;100.00;99201.19;108329;1251;60342;-91
2023/01/19 11:55:55;;;;;;;36.30;17.90;;;;;;;11.32;100.00;99201.87;108575;1251;73024;-91
2023/01/19 11:58:24;;;;;;;43.50;21.00;;;;;;;11.49;100.00;99201.29;109050;1250;70301;-88
2023/01/19 12:00:52;;;;;;;51.00;19.00;;;;;;;11.57;100.00;99199.98;108480;1251;72648;-90
2023/01/19 12:03:21;;;;;;;45.30;20.20;;;;;;;11.48;100.00;99196.27;108249;1251;61204;-89
2023/01/19 12:05:51;;;;;;;50.30;23.00;;;;;;;11.61;100.00;99195.92;108300;1251;60405;-90
2023/01/19 12:08:29;;;;;;;45.80;19.40;;;;;;;11.79;100.00;99189.94;108359;1251;74077;-91
2023/01/19 12:10:57;;;;;;;46.40;20.50;;;;;;;11.79;100.00;99196.42;108324;1251;70383;-91
2023/01/19 16:26:09;;;;;;;43.40;15.70;;;;;;;11.83;100.00;99271.27;105664;1285;613706;-63
2023/01/19 16:28:36;;;;;;;48.30;15.40;;;;;;;12.87;100.00;99264.96;107241;1267;138972;-64
2023/01/19 16:31:03;;;;;;;50.20;15.50;;;;;;;12.95;100.00;99265.72;108101;1254;60959;-63
2023/01/19 16:33:30;;;;;;;52.10;16.80;;;;;;;13.06;100.00;99269.13;108155;1254;72082;-60
2023/01/19 16:35:57;;;;;;;61.70;17.90;;;;;;;13.12;100.00;99271.41;108176;1253;72358;-64
2023/01/19 16:38:24;;;;;;;55.10;18.90;;;;;;;13.17;100.00;99272.84;108140;1254;73182;-61
2023/01/19 16:40:50;;;;;;;38.50;16.50;;;;;;;13.25;100.00;99265.70;108133;1254;63016;-63
2023/01/19 16:43:17;;;;;;;38.10;13.50;;;;;;;13.30;100.00;99266.11;108192;1254;61765;-63
2023/01/19 16:45:58;;;;;;;59.30;19.20;;;;;;;13.19;100.00;99270.61;108055;1254;71493;-64
2023/01/19 16:48:25;;;;;;;49.20;16.50;;;;;;;13.41;100.00;99272.31;107999;1257;72179;-64
2023/01/19 16:51:00;;;;;;;46.30;16.40;;;;;;;13.25;100.00;99273.77;108017;1256;73555;-63
2023/01/19 16:53:27;;;;;;;41.80;14.60;;;;;;;13.05;100.00;99273.60;107996;1256;64039;-65
2023/01/19 16:55:54;;;;;;;42.70;15.70;;;;;;;13.10;100.00;99279.27;107906;1255;61323;-62
2023/01/19 16:58:21;;;;;;;74.00;27.10;;;;;;;13.19;100.00;99276.80;108043;1257;75523;-61
2023/01/19 17:00:48;;;;;;;74.40;30.10;;;;;;;13.31;100.00;99274.13;107958;1256;71241;-60
2023/01/19 17:03:15;;;;;;;279.30;146.90;;;;;;;13.36;100.00;99270.70;107774;1257;74864;-63
2023/01/19 17:05:47;;;;;;;113.50;61.00;;;;;;;13.28;100.00;99268.69;107891;1256;63781;-62
2023/01/19 17:08:14;;;;;;;153.60;70.00;;;;;;;13.06;100.00;99271.60;107986;1255;61678;-64
2023/01/19 17:10:42;;;;;;;276.70;142.00;;;;;;;12.86;100.00;99273.16;107923;1256;74739;-62
2023/01/19 17:13:09;;;;;;;101.70;50.20;;;;;;;12.43;100.00;99266.14;107910;1257;72653;-64
2023/01/19 17:15:37;;;;;;;61.90;28.70;;;;;;;12.62;100.00;99270.86;107943;1255;74021;-64
2023/01/19 17:18:04;;;;;;;57.40;19.90;;;;;;;12.78;100.00;99272.24;107735;1256;64053;-63
2023/01/19 17:20:32;;;;;;;56.90;26.10;;;;;;;12.83;100.00;99264.89;107855;1256;61543;-64
2023/01/19 17:22:59;;;;;;;69.20;24.10;;;;;;;12.70;100.00;99259.10;107779;1256;75208;-64
2023/01/19 17:25:26;;;;;;;68.60;28.00;;;;;;;12.88;100.00;99270.39;107800;1256;71033;-64
2023/01/19 17:27:53;;;;;;;56.20;22.80;;;;;;;12.97;100.00;99270.34;107814;1257;74744;-63
2023/01/19 17:30:20;;;;;;;67.20;24.90;;;;;;;12.83;100.00;99265.41;107795;1257;63972;-63
2023/01/19 17:32:47;;;;;;;57.00;21.30;;;;;;;12.82;100.00;99271.26;107843;1257;61174;-63
2023/01/19 17:35:14;;;;;;;63.00;26.20;;;;;;;12.83;100.00;99272.83;107832;1260;75391;-65
2023/01/19 17:37:40;;;;;;;47.70;21.60;;;;;;;12.78;100.00;99272.77;107847;1256;70426;-63
2023/01/19 17:40:09;;;;;;;52.40;20.00;;;;;;;12.62;100.00;99273.14;107856;1257;74357;-62
2023/01/19 17:42:40;;;;;;;62.30;22.50;;;;;;;12.79;100.00;99270.59;107787;1257;62853;-63
2023/01/19 17:45:09;;;;;;;51.40;21.00;;;;;;;12.93;100.00;99266.36;108010;1257;62618;-64
2023/01/19 17:47:37;;;;;;;65.50;27.80;;;;;;;12.97;100.00;99268.25;107821;1257;74777;-63
2023/01/19 17:50:04;;;;;;;46.20;19.40;;;;;;;13.00;100.00;99268.09;107870;1256;72696;-64
2023/01/19 17:52:32;;;;;;;48.20;20.50;;;;;;;12.95;100.00;99267.34;107856;1256;74301;-63
2023/01/19 17:54:59;;;;;;;56.00;19.90;;;;;;;12.84;100.00;99268.17;107800;1256;64280;-62
2023/01/19 17:57:26;;;;;;;50.80;20.70;;;;;;;12.88;100.00;99265.30;107778;1256;62315;-63
2023/01/19 17:59:53;;;;;;;44.00;17.40;;;;;;;12.91;100.00;99266.33;107816;1256;74103;-65
2023/01/19 18:02:23;;;;;;;47.80;17.90;;;;;;;13.01;100.00;99264.67;107779;1257;72185;-64
2023/01/19 18:04:51;;;;;;;46.70;14.70;;;;;;;12.91;100.00;99269.89;107784;1256;74717;-63
2023/01/19 18:07:18;;;;;;;53.70;16.40;;;;;;;12.75;100.00;99269.77;107757;1256;62407;-63
2023/01/19 18:09:45;;;;;;;40.40;15.30;;;;;;;12.87;100.00;99272.08;107919;1256;61544;-63
2023/01/19 18:12:12;;;;;;;42.20;13.40;;;;;;;12.83;100.00;99272.98;107799;1257;74696;-64
2023/01/19 18:14:39;;;;;;;38.80;13.80;;;;;;;12.96;100.00;99273.80;107845;1257;71525;-65
2023/01/19 18:17:06;;;;;;;39.90;12.90;;;;;;;13.06;100.00;99269.83;107891;1254;73892;-63
2023/01/19 18:19:33;;;;;;;37.70;13.30;;;;;;;13.10;100.00;99266.56;107882;1255;63337;-63
2023/01/19 18:22:00;;;;;;;43.20;12.60;;;;;;;13.08;100.00;99272.34;107898;1254;60752;-63
2023/01/19 18:24:28;;;;;;;36.10;12.10;;;;;;;13.11;100.00;99273.02;107913;1254;75080;-63
2023/01/19 18:26:55;;;;;;;44.10;13.60;;;;;;;13.03;100.00;99269.15;107948;1254;72636;-65
2023/01/19 18:29:22;;;;;;;35.60;11.40;;;;;;;12.92;100.00;99270.30;108001;1254;74701;-64
2023/01/19 18:31:49;;;;;;;47.40;13.20;;;;;;;13.12;100.00;99269.63;107907;1254;61716;-64
2023/01/19 18:34:15;;;;;;;44.60;11.40;;;;;;;13.02;100.00;99264.94;107879;1254;61889;-64
2023/01/19 18:36:43;;;;;;;45.90;13.80;;;;;;;13.14;100.00;99264.41;107891;1254;75362;-64
2023/01/19 18:39:10;;;;;;;56.00;16.50;;;;;;;13.34;100.00;99255.95;107912;1254;72670;-65
2023/01/19 18:41:40;;;;;;;33.90;10.50;;;;;;;13.41;100.00;99261.02;107923;1257;75323;-65
2023/01/19 18:44:11;;;;;;;33.80;11.10;;;;;;;13.14;100.00;99263.00;107980;1254;64318;-65
2023/01/19 18:46:37;;;;;;;50.60;11.30;;;;;;;13.34;100.00;99261.42;107906;1254;59534;-63
2023/01/19 18:49:05;;;;;;;42.20;11.60;;;;;;;13.44;100.00;99259.59;107921;1254;75188;-64
2023/01/19 18:51:32;;;;;;;43.80;14.80;;;;;;;13.68;100.00;99256.66;107938;1254;70618;-64
2023/01/19 18:53:59;;;;;;;36.10;10.70;;;;;;;13.62;100.00;99268.67;107933;1254;74683;-63
2023/01/19 18:56:26;;;;;;;40.10;10.10;;;;;;;13.36;100.00;99275.61;107879;1254;63221;-65
2023/01/19 18:58:53;;;;;;;41.90;12.40;;;;;;;13.30;100.00;99275.09;107900;1254;59966;-66
2023/01/19 19:01:24;;;;;;;37.50;11.70;;;;;;;13.43;100.00;99271.43;107895;1254;75376;-63
2023/01/19 19:03:52;;;;;;;40.10;10.40;;;;;;;13.46;100.00;99270.06;108057;1254;71541;-63
2023/01/19 19:06:19;;;;;;;42.60;11.20;;;;;;;13.65;100.00;99272.87;108111;1254;74416;-65
2023/01/19 19:08:48;;;;;;;39.40;10.60;;;;;;;13.68;100.00;99276.04;107961;1254;63994;-65
2023/01/19 19:11:16;;;;;;;37.50;12.40;;;;;;;13.55;100.00;99267.90;107993;1254;59575;-64
2023/01/19 19:13:43;;;;;;;37.80;10.80;;;;;;;13.82;100.00;99271.63;107993;1254;74325;-65